sensor_id;sensor_type;location;lat;lon;timestamp;temperature;humidity
14192;DHT22;7177;48.572;7.838;2022-09-16T00:00:46;14.60;99.90
14192;DHT22;7177;48.572;7.838;2022-09-16T00:03:13;14.60;99.90
14192;DHT22;7177;48.572;7.838;2022-09-16T00:05:41;14.60;99.90
14192;DHT22;7177;48.572;7.838;2022-09-16T00:08:07;14.60;99.90
14192;DHT22;7177;48.572;7.838;2022-09-16T00:10:33;14.60;99.90
14192;DHT22;7177;48.572;7.838;2022-09-16T00:13:00;14.60;99.90
14192;DHT22;7177;48.572;7.838;2022-09-16T00:15:25;14.60;99.90
14192;DHT22;7177;48.572;7.838;2022-09-16T00:17:51;14.60;99.90
14192;DHT22;7177;48.572;7.838;2022-09-16T00:20:16;14.70;99.90
14192;DHT22;7177;48.572;7.838;2022-09-16T00:22:42;14.70;99.90
14192;DHT22;7177;48.572;7.838;2022-09-16T00:25:07;14.70;99.90
14192;DHT22;7177;48.572;7.838;2022-09-16T00:30:01;14.70;99.90
14192;DHT22;7177;48.572;7.838;2022-09-16T00:32:26;14.80;99.90
14192;DHT22;7177;48.572;7.838;2022-09-16T00:34:52;14.80;99.90
14192;DHT22;7177;48.572;7.838;2022-09-16T00:37:18;14.80;99.90
14192;DHT22;7177;48.572;7.838;2022-09-16T00:39:43;14.80;99.90
14192;DHT22;7177;48.572;7.838;2022-09-16T00:42:11;14.90;99.90
14192;DHT22;7177;48.572;7.838;2022-09-16T00:47:50;14.80;99.90
14192;DHT22;7177;48.572;7.838;2022-09-16T00:50:22;14.80;99.90
14192;DHT22;7177;48.572;7.838;2022-09-16T00:52:53;14.70;99.90
14192;DHT22;7177;48.572;7.838;2022-09-16T00:55:23;14.70;99.90
14192;DHT22;7177;48.572;7.838;2022-09-16T00:57:51;14.70;99.90
14192;DHT22;7177;48.572;7.838;2022-09-16T01:00:17;14.70;99.90
14192;DHT22;7177;48.572;7.838;2022-09-16T01:02:43;14.70;99.90
14192;DHT22;7177;48.572;7.838;2022-09-16T01:05:21;14.70;99.90
14192;DHT22;7177;48.572;7.838;2022-09-16T01:07:49;14.70;99.90
14192;DHT22;7177;48.572;7.838;2022-09-16T01:10:19;14.60;99.90
14192;DHT22;7177;48.572;7.838;2022-09-16T01:12:48;14.60;99.90
14192;DHT22;7177;48.572;7.838;2022-09-16T01:15:15;14.60;99.90
14192;DHT22;7177;48.572;7.838;2022-09-16T01:18:06;14.60;99.90
14192;DHT22;7177;48.572;7.838;2022-09-16T01:20:57;14.60;99.90
14192;DHT22;7177;48.572;7.838;2022-09-16T01:23:55;14.60;99.90
14192;DHT22;7177;48.572;7.838;2022-09-16T01:26:56;14.60;99.90
14192;DHT22;7177;48.572;7.838;2022-09-16T01:29:50;14.60;99.90
14192;DHT22;7177;48.572;7.838;2022-09-16T01:43:45;14.70;99.90
14192;DHT22;7177;48.572;7.838;2022-09-16T01:49:03;14.70;99.90
14192;DHT22;7177;48.572;7.838;2022-09-16T01:51:40;14.70;99.90
14192;DHT22;7177;48.572;7.838;2022-09-16T01:54:23;14.70;99.90
14192;DHT22;7177;48.572;7.838;2022-09-16T01:57:15;14.70;99.90
14192;DHT22;7177;48.572;7.838;2022-09-16T01:59:47;14.70;99.90
14192;DHT22;7177;48.572;7.838;2022-09-16T02:02:22;14.70;99.90
14192;DHT22;7177;48.572;7.838;2022-09-16T02:04:54;14.70;99.90
14192;DHT22;7177;48.572;7.838;2022-09-16T02:07:25;14.70;99.90
14192;DHT22;7177;48.572;7.838;2022-09-16T02:10:00;14.60;99.90
14192;DHT22;7177;48.572;7.838;2022-09-16T02:12:33;14.60;99.90
14192;DHT22;7177;48.572;7.838;2022-09-16T02:15:04;14.60;99.90
14192;DHT22;7177;48.572;7.838;2022-09-16T02:17:34;14.70;99.90
14192;DHT22;7177;48.572;7.838;2022-09-16T02:22:46;14.70;99.90
14192;DHT22;7177;48.572;7.838;2022-09-16T02:25:15;14.70;99.90
14192;DHT22;7177;48.572;7.838;2022-09-16T02:27:44;14.70;99.90
14192;DHT22;7177;48.572;7.838;2022-09-16T02:30:14;14.70;99.90
14192;DHT22;7177;48.572;7.838;2022-09-16T02:32:47;14.70;99.90
14192;DHT22;7177;48.572;7.838;2022-09-16T02:35:16;14.70;99.90
14192;DHT22;7177;48.572;7.838;2022-09-16T02:37:50;14.70;99.90
14192;DHT22;7177;48.572;7.838;2022-09-16T02:40:23;14.70;99.90
14192;DHT22;7177;48.572;7.838;2022-09-16T02:42:50;14.70;99.90
14192;DHT22;7177;48.572;7.838;2022-09-16T02:45:16;14.70;99.90
14192;DHT22;7177;48.572;7.838;2022-09-16T02:48:01;14.70;99.90
14192;DHT22;7177;48.572;7.838;2022-09-16T02:50:52;14.70;99.90
14192;DHT22;7177;48.572;7.838;2022-09-16T02:53:45;14.70;99.90
14192;DHT22;7177;48.572;7.838;2022-09-16T02:56:22;14.70;99.90
14192;DHT22;7177;48.572;7.838;2022-09-16T02:58:50;14.70;99.90
14192;DHT22;7177;48.572;7.838;2022-09-16T03:01:16;14.70;99.90
14192;DHT22;7177;48.572;7.838;2022-09-16T03:03:43;14.70;99.90
14192;DHT22;7177;48.572;7.838;2022-09-16T03:06:16;14.70;99.90
14192;DHT22;7177;48.572;7.838;2022-09-16T03:08:43;14.70;99.90
14192;DHT22;7177;48.572;7.838;2022-09-16T03:22:56;14.70;99.90
14192;DHT22;7177;48.572;7.838;2022-09-16T03:25:58;14.70;99.90
14192;DHT22;7177;48.572;7.838;2022-09-16T03:28:30;14.70;99.90
14192;DHT22;7177;48.572;7.838;2022-09-16T03:31:19;14.70;99.90
14192;DHT22;7177;48.572;7.838;2022-09-16T03:36:39;14.80;99.90
14192;DHT22;7177;48.572;7.838;2022-09-16T03:39:08;14.80;99.90
14192;DHT22;7177;48.572;7.838;2022-09-16T03:41:35;14.70;99.90
14192;DHT22;7177;48.572;7.838;2022-09-16T03:44:01;14.70;99.90
14192;DHT22;7177;48.572;7.838;2022-09-16T03:46:26;14.70;99.90
14192;DHT22;7177;48.572;7.838;2022-09-16T03:48:54;14.70;99.90
14192;DHT22;7177;48.572;7.838;2022-09-16T03:51:20;14.70;99.90
14192;DHT22;7177;48.572;7.838;2022-09-16T03:53:45;14.70;99.90
14192;DHT22;7177;48.572;7.838;2022-09-16T03:56:11;14.70;99.90
14192;DHT22;7177;48.572;7.838;2022-09-16T03:58:36;14.70;99.90
14192;DHT22;7177;48.572;7.838;2022-09-16T04:01:02;14.70;99.90
14192;DHT22;7177;48.572;7.838;2022-09-16T04:03:28;14.70;99.90
14192;DHT22;7177;48.572;7.838;2022-09-16T04:05:54;14.70;99.90
14192;DHT22;7177;48.572;7.838;2022-09-16T04:08:21;14.70;99.90
14192;DHT22;7177;48.572;7.838;2022-09-16T04:10:57;14.70;99.90
14192;DHT22;7177;48.572;7.838;2022-09-16T04:13:24;14.70;99.90
14192;DHT22;7177;48.572;7.838;2022-09-16T04:15:50;14.70;99.90
14192;DHT22;7177;48.572;7.838;2022-09-16T04:18:15;14.80;99.90
14192;DHT22;7177;48.572;7.838;2022-09-16T04:20:41;15.10;99.90
14192;DHT22;7177;48.572;7.838;2022-09-16T04:23:07;15.20;99.90
14192;DHT22;7177;48.572;7.838;2022-09-16T04:25:33;15.30;99.90
14192;DHT22;7177;48.572;7.838;2022-09-16T04:27:59;15.30;99.90
14192;DHT22;7177;48.572;7.838;2022-09-16T04:30:25;15.40;99.90
14192;DHT22;7177;48.572;7.838;2022-09-16T04:32:54;15.50;99.90
14192;DHT22;7177;48.572;7.838;2022-09-16T04:35:21;15.50;99.90
14192;DHT22;7177;48.572;7.838;2022-09-16T04:37:47;15.50;99.90
14192;DHT22;7177;48.572;7.838;2022-09-16T04:40:13;15.60;99.90
14192;DHT22;7177;48.572;7.838;2022-09-16T04:42:38;15.50;99.90
14192;DHT22;7177;48.572;7.838;2022-09-16T04:45:04;15.60;99.90
14192;DHT22;7177;48.572;7.838;2022-09-16T04:47:30;15.60;99.90
14192;DHT22;7177;48.572;7.838;2022-09-16T04:49:56;15.60;99.90
14192;DHT22;7177;48.572;7.838;2022-09-16T04:52:21;15.50;99.90
14192;DHT22;7177;48.572;7.838;2022-09-16T04:54:47;15.40;99.90
14192;DHT22;7177;48.572;7.838;2022-09-16T04:57:12;15.40;99.90
14192;DHT22;7177;48.572;7.838;2022-09-16T04:59:38;15.30;99.90
14192;DHT22;7177;48.572;7.838;2022-09-16T05:02:03;15.30;99.90
14192;DHT22;7177;48.572;7.838;2022-09-16T05:04:29;15.20;99.90
14192;DHT22;7177;48.572;7.838;2022-09-16T05:06:54;15.00;99.90
14192;DHT22;7177;48.572;7.838;2022-09-16T05:09:20;15.00;99.90
14192;DHT22;7177;48.572;7.838;2022-09-16T05:11:48;15.10;99.90
14192;DHT22;7177;48.572;7.838;2022-09-16T05:14:16;15.10;99.90
14192;DHT22;7177;48.572;7.838;2022-09-16T05:16:43;15.00;99.90
14192;DHT22;7177;48.572;7.838;2022-09-16T05:19:11;14.90;99.90
14192;DHT22;7177;48.572;7.838;2022-09-16T05:21:38;14.80;99.90
14192;DHT22;7177;48.572;7.838;2022-09-16T05:24:09;14.80;99.90
14192;DHT22;7177;48.572;7.838;2022-09-16T05:26:37;14.70;99.90
14192;DHT22;7177;48.572;7.838;2022-09-16T05:29:07;14.60;99.90
14192;DHT22;7177;48.572;7.838;2022-09-16T05:31:36;14.50;99.90
14192;DHT22;7177;48.572;7.838;2022-09-16T05:34:03;14.40;99.90
14192;DHT22;7177;48.572;7.838;2022-09-16T05:36:33;14.30;99.90
14192;DHT22;7177;48.572;7.838;2022-09-16T05:38:59;14.30;99.90
14192;DHT22;7177;48.572;7.838;2022-09-16T05:41:25;14.20;99.90
14192;DHT22;7177;48.572;7.838;2022-09-16T05:43:51;14.20;99.90
14192;DHT22;7177;48.572;7.838;2022-09-16T05:46:21;14.20;99.90
14192;DHT22;7177;48.572;7.838;2022-09-16T05:48:48;14.20;99.90
14192;DHT22;7177;48.572;7.838;2022-09-16T05:51:16;14.20;99.90
14192;DHT22;7177;48.572;7.838;2022-09-16T05:53:42;14.30;99.90
14192;DHT22;7177;48.572;7.838;2022-09-16T05:56:37;14.30;99.90
14192;DHT22;7177;48.572;7.838;2022-09-16T05:59:03;14.20;99.90
14192;DHT22;7177;48.572;7.838;2022-09-16T06:01:31;14.20;99.90
14192;DHT22;7177;48.572;7.838;2022-09-16T06:03:59;14.20;99.90
14192;DHT22;7177;48.572;7.838;2022-09-16T06:06:51;14.10;99.90
14192;DHT22;7177;48.572;7.838;2022-09-16T06:09:21;14.00;99.90
14192;DHT22;7177;48.572;7.838;2022-09-16T06:11:49;13.90;99.90
14192;DHT22;7177;48.572;7.838;2022-09-16T06:14:15;13.90;99.90
14192;DHT22;7177;48.572;7.838;2022-09-16T06:16:42;13.80;99.90
14192;DHT22;7177;48.572;7.838;2022-09-16T06:19:11;13.70;99.90
14192;DHT22;7177;48.572;7.838;2022-09-16T06:21:38;13.60;99.90
14192;DHT22;7177;48.572;7.838;2022-09-16T06:24:04;13.60;99.90
14192;DHT22;7177;48.572;7.838;2022-09-16T06:26:34;13.60;99.90
14192;DHT22;7177;48.572;7.838;2022-09-16T06:31:28;13.60;99.90
14192;DHT22;7177;48.572;7.838;2022-09-16T06:33:54;13.60;99.90
14192;DHT22;7177;48.572;7.838;2022-09-16T06:36:26;13.60;99.90
14192;DHT22;7177;48.572;7.838;2022-09-16T06:38:51;13.60;99.90
14192;DHT22;7177;48.572;7.838;2022-09-16T06:41:18;13.60;99.90
14192;DHT22;7177;48.572;7.838;2022-09-16T06:43:44;13.60;99.90
14192;DHT22;7177;48.572;7.838;2022-09-16T06:46:16;13.60;99.90
14192;DHT22;7177;48.572;7.838;2022-09-16T06:48:44;13.60;99.90
14192;DHT22;7177;48.572;7.838;2022-09-16T06:51:11;13.70;99.90
14192;DHT22;7177;48.572;7.838;2022-09-16T06:53:38;13.70;99.90
14192;DHT22;7177;48.572;7.838;2022-09-16T06:56:09;13.90;99.90
14192;DHT22;7177;48.572;7.838;2022-09-16T06:58:37;13.90;99.90
14192;DHT22;7177;48.572;7.838;2022-09-16T07:01:12;13.90;99.90
14192;DHT22;7177;48.572;7.838;2022-09-16T07:03:39;13.80;99.90
14192;DHT22;7177;48.572;7.838;2022-09-16T07:06:06;13.80;99.90
14192;DHT22;7177;48.572;7.838;2022-09-16T07:08:32;13.70;99.90
14192;DHT22;7177;48.572;7.838;2022-09-16T07:10:59;13.70;99.90
14192;DHT22;7177;48.572;7.838;2022-09-16T07:13:25;13.70;99.90
14192;DHT22;7177;48.572;7.838;2022-09-16T07:15:51;13.80;99.90
14192;DHT22;7177;48.572;7.838;2022-09-16T07:18:17;13.80;99.90
14192;DHT22;7177;48.572;7.838;2022-09-16T07:20:43;13.80;99.90
14192;DHT22;7177;48.572;7.838;2022-09-16T07:23:08;13.80;99.90
14192;DHT22;7177;48.572;7.838;2022-09-16T07:25:34;13.80;99.90
14192;DHT22;7177;48.572;7.838;2022-09-16T07:28:00;13.80;99.90
14192;DHT22;7177;48.572;7.838;2022-09-16T07:30:25;13.70;99.90
14192;DHT22;7177;48.572;7.838;2022-09-16T07:32:54;13.70;99.90
14192;DHT22;7177;48.572;7.838;2022-09-16T07:35:20;13.80;99.90
14192;DHT22;7177;48.572;7.838;2022-09-16T07:37:46;13.90;99.90
14192;DHT22;7177;48.572;7.838;2022-09-16T07:40:11;13.80;99.90
14192;DHT22;7177;48.572;7.838;2022-09-16T07:42:38;13.80;99.90
14192;DHT22;7177;48.572;7.838;2022-09-16T07:45:05;13.90;99.90
14192;DHT22;7177;48.572;7.838;2022-09-16T07:47:31;13.90;99.90
14192;DHT22;7177;48.572;7.838;2022-09-16T07:49:56;13.90;99.90
14192;DHT22;7177;48.572;7.838;2022-09-16T07:52:23;14.00;99.90
14192;DHT22;7177;48.572;7.838;2022-09-16T07:54:54;14.00;99.90
14192;DHT22;7177;48.572;7.838;2022-09-16T07:57:19;14.00;99.90
14192;DHT22;7177;48.572;7.838;2022-09-16T07:59:46;14.00;99.90
14192;DHT22;7177;48.572;7.838;2022-09-16T08:02:12;14.10;99.90
14192;DHT22;7177;48.572;7.838;2022-09-16T08:04:37;14.10;99.90
14192;DHT22;7177;48.572;7.838;2022-09-16T08:07:04;14.20;99.90
14192;DHT22;7177;48.572;7.838;2022-09-16T08:09:30;14.30;99.90
14192;DHT22;7177;48.572;7.838;2022-09-16T08:11:56;14.40;99.90
14192;DHT22;7177;48.572;7.838;2022-09-16T08:14:21;14.60;99.90
14192;DHT22;7177;48.572;7.838;2022-09-16T08:16:47;14.80;99.90
14192;DHT22;7177;48.572;7.838;2022-09-16T08:19:15;14.90;99.90
14192;DHT22;7177;48.572;7.838;2022-09-16T08:21:41;14.90;99.90
14192;DHT22;7177;48.572;7.838;2022-09-16T08:24:08;15.00;99.90
14192;DHT22;7177;48.572;7.838;2022-09-16T08:26:35;15.10;99.90
14192;DHT22;7177;48.572;7.838;2022-09-16T08:29:01;15.10;99.90
14192;DHT22;7177;48.572;7.838;2022-09-16T08:31:26;15.20;99.90
14192;DHT22;7177;48.572;7.838;2022-09-16T08:33:52;15.20;99.90
14192;DHT22;7177;48.572;7.838;2022-09-16T08:36:20;15.30;99.90
14192;DHT22;7177;48.572;7.838;2022-09-16T08:38:47;15.30;99.90
14192;DHT22;7177;48.572;7.838;2022-09-16T08:41:39;15.20;99.90
14192;DHT22;7177;48.572;7.838;2022-09-16T08:46:57;15.30;99.90
14192;DHT22;7177;48.572;7.838;2022-09-16T08:51:57;15.60;99.90
14192;DHT22;7177;48.572;7.838;2022-09-16T08:57:14;15.50;99.90
14192;DHT22;7177;48.572;7.838;2022-09-16T08:59:43;15.40;99.90
14192;DHT22;7177;48.572;7.838;2022-09-16T09:02:37;15.30;99.90
14192;DHT22;7177;48.572;7.838;2022-09-16T09:05:48;15.20;99.90
14192;DHT22;7177;48.572;7.838;2022-09-16T09:10:49;15.40;99.90
14192;DHT22;7177;48.572;7.838;2022-09-16T09:13:41;15.70;99.90
14192;DHT22;7177;48.572;7.838;2022-09-16T09:16:38;15.70;99.90
14192;DHT22;7177;48.572;7.838;2022-09-16T09:25:31;15.60;99.90
14192;DHT22;7177;48.572;7.838;2022-09-16T09:31:17;15.60;99.90
14192;DHT22;7177;48.572;7.838;2022-09-16T09:41:56;15.70;99.90
14192;DHT22;7177;48.572;7.838;2022-09-16T09:45:31;15.80;99.90
14192;DHT22;7177;48.572;7.838;2022-09-16T09:47:51;15.90;99.90
14192;DHT22;7177;48.572;7.838;2022-09-16T09:50:40;15.70;99.90
14192;DHT22;7177;48.572;7.838;2022-09-16T09:55:53;15.50;99.90
14192;DHT22;7177;48.572;7.838;2022-09-16T09:58:35;15.70;99.90
14192;DHT22;7177;48.572;7.838;2022-09-16T10:01:02;15.90;99.90
14192;DHT22;7177;48.572;7.838;2022-09-16T10:03:29;16.10;99.90
14192;DHT22;7177;48.572;7.838;2022-09-16T10:05:55;16.20;99.90
14192;DHT22;7177;48.572;7.838;2022-09-16T10:08:27;16.40;99.90
14192;DHT22;7177;48.572;7.838;2022-09-16T10:10:57;16.60;99.90
14192;DHT22;7177;48.572;7.838;2022-09-16T10:13:24;16.90;99.90
14192;DHT22;7177;48.572;7.838;2022-09-16T10:15:54;17.30;99.90
14192;DHT22;7177;48.572;7.838;2022-09-16T10:18:31;17.60;99.90
14192;DHT22;7177;48.572;7.838;2022-09-16T10:23:32;17.80;99.90
14192;DHT22;7177;48.572;7.838;2022-09-16T10:26:20;17.60;99.90
14192;DHT22;7177;48.572;7.838;2022-09-16T10:29:14;17.50;99.90
14192;DHT22;7177;48.572;7.838;2022-09-16T10:31:40;17.40;99.90
14192;DHT22;7177;48.572;7.838;2022-09-16T10:34:27;17.30;99.90
14192;DHT22;7177;48.572;7.838;2022-09-16T10:39:32;17.00;99.90
14192;DHT22;7177;48.572;7.838;2022-09-16T10:41:58;17.00;99.90
14192;DHT22;7177;48.572;7.838;2022-09-16T10:44:28;17.00;99.90
14192;DHT22;7177;48.572;7.838;2022-09-16T10:47:04;17.00;99.90
14192;DHT22;7177;48.572;7.838;2022-09-16T10:49:39;17.00;99.90
14192;DHT22;7177;48.572;7.838;2022-09-16T10:52:15;17.10;99.90
14192;DHT22;7177;48.572;7.838;2022-09-16T10:54:41;17.10;99.90
14192;DHT22;7177;48.572;7.838;2022-09-16T11:00:15;17.00;99.90
14192;DHT22;7177;48.572;7.838;2022-09-16T11:05:44;16.80;99.90
14192;DHT22;7177;48.572;7.838;2022-09-16T11:11:06;16.40;99.90
14192;DHT22;7177;48.572;7.838;2022-09-16T11:13:46;16.20;99.90
14192;DHT22;7177;48.572;7.838;2022-09-16T11:16:46;16.10;99.90
14192;DHT22;7177;48.572;7.838;2022-09-16T11:25:14;16.10;99.90
14192;DHT22;7177;48.572;7.838;2022-09-16T11:30:32;17.10;99.90
14192;DHT22;7177;48.572;7.838;2022-09-16T11:33:16;17.60;99.90
14192;DHT22;7177;48.572;7.838;2022-09-16T11:38:38;18.40;99.90
14192;DHT22;7177;48.572;7.838;2022-09-16T11:44:25;19.50;99.90
14192;DHT22;7177;48.572;7.838;2022-09-16T11:47:20;20.80;99.90
14192;DHT22;7177;48.572;7.838;2022-09-16T11:50:02;21.60;99.90
14192;DHT22;7177;48.572;7.838;2022-09-16T11:53:08;21.70;99.90
14192;DHT22;7177;48.572;7.838;2022-09-16T11:58:42;22.60;99.90
14192;DHT22;7177;48.572;7.838;2022-09-16T12:04:47;22.30;99.90
14192;DHT22;7177;48.572;7.838;2022-09-16T12:07:20;21.70;99.90
14192;DHT22;7177;48.572;7.838;2022-09-16T12:12:21;20.90;99.90
14192;DHT22;7177;48.572;7.838;2022-09-16T12:14:56;21.00;99.90
14192;DHT22;7177;48.572;7.838;2022-09-16T12:17:35;21.60;99.90
14192;DHT22;7177;48.572;7.838;2022-09-16T12:20:17;21.80;99.90
14192;DHT22;7177;48.572;7.838;2022-09-16T12:22:50;21.80;99.90
14192;DHT22;7177;48.572;7.838;2022-09-16T12:25:28;21.60;99.90
14192;DHT22;7177;48.572;7.838;2022-09-16T12:28:02;21.30;99.90
14192;DHT22;7177;48.572;7.838;2022-09-16T12:30:40;20.50;99.90
14192;DHT22;7177;48.572;7.838;2022-09-16T12:33:28;20.10;99.90
14192;DHT22;7177;48.572;7.838;2022-09-16T12:36:12;20.00;99.90
14192;DHT22;7177;48.572;7.838;2022-09-16T12:38:39;19.90;99.90
14192;DHT22;7177;48.572;7.838;2022-09-16T12:52:21;19.80;99.90
14192;DHT22;7177;48.572;7.838;2022-09-16T12:57:56;20.30;99.90
14192;DHT22;7177;48.572;7.838;2022-09-16T13:00:35;20.50;99.90
14192;DHT22;7177;48.572;7.838;2022-09-16T13:03:17;21.00;99.90
14192;DHT22;7177;48.572;7.838;2022-09-16T13:05:54;21.50;99.90
14192;DHT22;7177;48.572;7.838;2022-09-16T13:08:25;21.70;99.90
14192;DHT22;7177;48.572;7.838;2022-09-16T13:11:00;21.90;99.90
14192;DHT22;7177;48.572;7.838;2022-09-16T13:13:35;21.90;99.30
14192;DHT22;7177;48.572;7.838;2022-09-16T13:16:04;21.70;98.80
14192;DHT22;7177;48.572;7.838;2022-09-16T13:18:48;21.50;99.90
14192;DHT22;7177;48.572;7.838;2022-09-16T13:21:27;21.30;99.90
14192;DHT22;7177;48.572;7.838;2022-09-16T13:24:04;21.30;99.90
14192;DHT22;7177;48.572;7.838;2022-09-16T13:26:43;21.00;99.90
14192;DHT22;7177;48.572;7.838;2022-09-16T13:29:45;20.80;99.90
14192;DHT22;7177;48.572;7.838;2022-09-16T13:32:41;20.80;99.90
14192;DHT22;7177;48.572;7.838;2022-09-16T13:35:33;20.60;99.90
14192;DHT22;7177;48.572;7.838;2022-09-16T13:37:58;20.40;99.90
14192;DHT22;7177;48.572;7.838;2022-09-16T13:40:35;20.20;99.90
14192;DHT22;7177;48.572;7.838;2022-09-16T13:45:44;20.30;99.90
14192;DHT22;7177;48.572;7.838;2022-09-16T13:48:19;20.20;99.90
14192;DHT22;7177;48.572;7.838;2022-09-16T13:50:50;20.30;99.90
14192;DHT22;7177;48.572;7.838;2022-09-16T13:53:22;20.80;99.90
14192;DHT22;7177;48.572;7.838;2022-09-16T13:55:49;20.90;99.90
14192;DHT22;7177;48.572;7.838;2022-09-16T14:03:43;20.90;99.60
14192;DHT22;7177;48.572;7.838;2022-09-16T14:14:43;21.00;99.90
14192;DHT22;7177;48.572;7.838;2022-09-16T14:17:22;20.90;99.90
14192;DHT22;7177;48.572;7.838;2022-09-16T14:19:51;20.50;99.50
14192;DHT22;7177;48.572;7.838;2022-09-16T14:22:19;20.20;99.90
14192;DHT22;7177;48.572;7.838;2022-09-16T14:24:51;20.00;99.90
14192;DHT22;7177;48.572;7.838;2022-09-16T14:27:20;19.70;99.90
14192;DHT22;7177;48.572;7.838;2022-09-16T14:30:00;19.40;99.90
14192;DHT22;7177;48.572;7.838;2022-09-16T14:32:28;19.10;99.90
14192;DHT22;7177;48.572;7.838;2022-09-16T14:34:57;18.90;99.90
14192;DHT22;7177;48.572;7.838;2022-09-16T14:37:25;19.00;99.90
14192;DHT22;7177;48.572;7.838;2022-09-16T14:39:53;19.20;99.90
14192;DHT22;7177;48.572;7.838;2022-09-16T14:42:21;19.30;99.90
14192;DHT22;7177;48.572;7.838;2022-09-16T14:44:52;19.40;99.90
14192;DHT22;7177;48.572;7.838;2022-09-16T14:47:26;20.00;99.90
14192;DHT22;7177;48.572;7.838;2022-09-16T14:50:02;20.40;99.90
14192;DHT22;7177;48.572;7.838;2022-09-16T14:52:32;20.80;99.40
14192;DHT22;7177;48.572;7.838;2022-09-16T14:54:58;21.20;99.40
14192;DHT22;7177;48.572;7.838;2022-09-16T14:57:28;21.50;98.70
14192;DHT22;7177;48.572;7.838;2022-09-16T15:00:01;21.70;99.20
14192;DHT22;7177;48.572;7.838;2022-09-16T15:02:42;21.60;96.90
14192;DHT22;7177;48.572;7.838;2022-09-16T15:07:40;22.20;97.60
14192;DHT22;7177;48.572;7.838;2022-09-16T15:10:07;22.30;95.30
14192;DHT22;7177;48.572;7.838;2022-09-16T15:12:38;21.80;96.20
14192;DHT22;7177;48.572;7.838;2022-09-16T15:15:18;21.50;96.90
14192;DHT22;7177;48.572;7.838;2022-09-16T15:18:02;21.30;97.30
14192;DHT22;7177;48.572;7.838;2022-09-16T15:20:30;21.60;99.50
14192;DHT22;7177;48.572;7.838;2022-09-16T15:22:57;21.90;97.30
14192;DHT22;7177;48.572;7.838;2022-09-16T15:25:30;21.90;97.30
14192;DHT22;7177;48.572;7.838;2022-09-16T15:28:14;22.00;99.30
14192;DHT22;7177;48.572;7.838;2022-09-16T15:30:49;21.40;97.40
14192;DHT22;7177;48.572;7.838;2022-09-16T15:33:40;20.70;97.90
14192;DHT22;7177;48.572;7.838;2022-09-16T15:38:57;19.60;99.90
14192;DHT22;7177;48.572;7.838;2022-09-16T15:41:23;19.50;99.90
14192;DHT22;7177;48.572;7.838;2022-09-16T15:43:48;19.20;99.90
14192;DHT22;7177;48.572;7.838;2022-09-16T15:46:15;19.00;99.90
14192;DHT22;7177;48.572;7.838;2022-09-16T15:48:54;18.90;99.90
14192;DHT22;7177;48.572;7.838;2022-09-16T15:51:47;18.70;99.90
14192;DHT22;7177;48.572;7.838;2022-09-16T15:54:35;18.60;99.90
14192;DHT22;7177;48.572;7.838;2022-09-16T15:59:40;18.80;99.90
14192;DHT22;7177;48.572;7.838;2022-09-16T16:02:32;18.80;99.90
14192;DHT22;7177;48.572;7.838;2022-09-16T16:05:15;18.70;99.90
14192;DHT22;7177;48.572;7.838;2022-09-16T16:07:45;18.40;99.90
14192;DHT22;7177;48.572;7.838;2022-09-16T16:10:22;18.20;99.90
14192;DHT22;7177;48.572;7.838;2022-09-16T16:12:49;18.10;99.90
14192;DHT22;7177;48.572;7.838;2022-09-16T16:15:23;17.90;99.90
14192;DHT22;7177;48.572;7.838;2022-09-16T16:17:50;17.80;99.90
14192;DHT22;7177;48.572;7.838;2022-09-16T16:20:18;17.70;99.90
14192;DHT22;7177;48.572;7.838;2022-09-16T16:22:45;17.60;99.90
14192;DHT22;7177;48.572;7.838;2022-09-16T16:25:12;17.60;99.90
14192;DHT22;7177;48.572;7.838;2022-09-16T16:27:38;17.60;99.90
14192;DHT22;7177;48.572;7.838;2022-09-16T16:30:04;17.50;99.90
14192;DHT22;7177;48.572;7.838;2022-09-16T16:32:30;17.50;99.90
14192;DHT22;7177;48.572;7.838;2022-09-16T16:34:56;17.50;99.90
14192;DHT22;7177;48.572;7.838;2022-09-16T16:37:24;17.40;99.90
14192;DHT22;7177;48.572;7.838;2022-09-16T16:39:50;17.30;99.90
14192;DHT22;7177;48.572;7.838;2022-09-16T16:42:16;17.30;99.90
14192;DHT22;7177;48.572;7.838;2022-09-16T16:44:42;17.20;99.90
14192;DHT22;7177;48.572;7.838;2022-09-16T16:47:08;17.20;99.90
14192;DHT22;7177;48.572;7.838;2022-09-16T16:49:34;17.20;99.90
14192;DHT22;7177;48.572;7.838;2022-09-16T16:52:01;17.10;99.90
14192;DHT22;7177;48.572;7.838;2022-09-16T16:54:27;17.10;99.90
14192;DHT22;7177;48.572;7.838;2022-09-16T16:56:53;17.10;99.90
14192;DHT22;7177;48.572;7.838;2022-09-16T16:59:20;17.00;99.90
14192;DHT22;7177;48.572;7.838;2022-09-16T17:01:49;16.90;99.90
14192;DHT22;7177;48.572;7.838;2022-09-16T17:04:15;16.90;99.90
14192;DHT22;7177;48.572;7.838;2022-09-16T17:06:40;16.80;99.90
14192;DHT22;7177;48.572;7.838;2022-09-16T17:09:07;16.70;99.90
14192;DHT22;7177;48.572;7.838;2022-09-16T17:11:34;16.60;99.90
14192;DHT22;7177;48.572;7.838;2022-09-16T17:14:03;16.50;99.90
14192;DHT22;7177;48.572;7.838;2022-09-16T17:16:29;16.50;99.90
14192;DHT22;7177;48.572;7.838;2022-09-16T17:18:56;16.50;99.90
14192;DHT22;7177;48.572;7.838;2022-09-16T17:21:28;16.40;99.90
14192;DHT22;7177;48.572;7.838;2022-09-16T17:23:54;16.40;99.90
14192;DHT22;7177;48.572;7.838;2022-09-16T17:26:20;16.30;99.90
14192;DHT22;7177;48.572;7.838;2022-09-16T17:28:48;16.20;99.90
14192;DHT22;7177;48.572;7.838;2022-09-16T17:31:20;16.20;99.90
14192;DHT22;7177;48.572;7.838;2022-09-16T17:33:46;16.10;99.90
14192;DHT22;7177;48.572;7.838;2022-09-16T17:36:14;15.90;99.90
14192;DHT22;7177;48.572;7.838;2022-09-16T17:38:40;15.80;99.90
14192;DHT22;7177;48.572;7.838;2022-09-16T17:41:11;15.70;99.90
14192;DHT22;7177;48.572;7.838;2022-09-16T17:43:37;15.60;99.90
14192;DHT22;7177;48.572;7.838;2022-09-16T17:46:05;15.50;99.90
14192;DHT22;7177;48.572;7.838;2022-09-16T17:48:31;15.40;99.90
14192;DHT22;7177;48.572;7.838;2022-09-16T17:50:57;15.30;99.90
14192;DHT22;7177;48.572;7.838;2022-09-16T17:53:23;15.30;99.90
14192;DHT22;7177;48.572;7.838;2022-09-16T17:55:49;15.20;99.90
14192;DHT22;7177;48.572;7.838;2022-09-16T17:58:15;15.10;99.90
14192;DHT22;7177;48.572;7.838;2022-09-16T18:00:41;15.10;99.90
14192;DHT22;7177;48.572;7.838;2022-09-16T18:03:08;15.00;99.90
14192;DHT22;7177;48.572;7.838;2022-09-16T18:05:35;14.90;99.90
14192;DHT22;7177;48.572;7.838;2022-09-16T18:08:02;14.80;99.90
14192;DHT22;7177;48.572;7.838;2022-09-16T18:10:28;14.70;99.90
14192;DHT22;7177;48.572;7.838;2022-09-16T18:12:54;14.70;99.90
14192;DHT22;7177;48.572;7.838;2022-09-16T18:15:19;14.60;99.90
14192;DHT22;7177;48.572;7.838;2022-09-16T18:17:45;14.60;99.90
14192;DHT22;7177;48.572;7.838;2022-09-16T18:20:10;14.50;99.90
14192;DHT22;7177;48.572;7.838;2022-09-16T18:22:36;14.50;99.90
14192;DHT22;7177;48.572;7.838;2022-09-16T18:25:02;14.50;99.90
14192;DHT22;7177;48.572;7.838;2022-09-16T18:27:29;14.50;99.90
14192;DHT22;7177;48.572;7.838;2022-09-16T18:29:54;14.40;99.90
14192;DHT22;7177;48.572;7.838;2022-09-16T18:32:22;14.40;99.90
14192;DHT22;7177;48.572;7.838;2022-09-16T18:34:47;14.30;99.90
14192;DHT22;7177;48.572;7.838;2022-09-16T18:37:13;14.30;99.90